P. B. Shah — WDB8609 — position and weather

sailwx.info

Track history (hours):
 
Tides and Currents Weather Stations Pressure Air Temp Water Temp Dewpoint Dewpoint Depression Visibility Wind Speed Wind Dir Waves Ship Positions

P. B. Shah

Owner: INGRAM BARGE COMPANY, Nashville, TN. More information available from US FCC via Universal Licensing System and Coast Guard Vessel Documentation Center.

Last reported at 2016-Jun-30 19:32 UTC. Time now 2016-Jul-01 20:48 UTC.
Position N 31°54' W 091°12'.

Length 46 m; draft 3.1 m.

Type: Towing. MMSI: 366961480.

Date/timePositionNaut miles runAvg speedWind from/ knotsBaromVisibWave heightAir tempDewpointWater temp
2016-Jun-30 19:32N 31°54' W 091°12'7 7.1
2016-Jun-30 18:29N 31°59' W 091°06'6 6.9
2016-Jun-30 17:33N 32°06' W 091°05'4 3.6
2016-Jun-30 16:34N 32°07' W 091°02'8 8.3
2016-Jun-30 15:34N 32°15' W 090°59'6 6.2
2016-Jun-30 14:34N 32°21' W 090°55'6 6.2
2016-Jun-30 13:33N 32°25' W 091°00'8 7.6
2016-Jun-30 12:33N 32°31' W 091°07'8 8.5
2016-Jun-30 11:33N 32°39' W 091°09'5 3.9
2016-Jun-30 10:10N 32°44' W 091°08'3 4.2
2016-Jun-30 09:33N 32°47' W 091°10'  
Track history (hours):
 
Tides and Currents Weather Stations Pressure Air Temp Water Temp Dewpoint Dewpoint Depression Visibility Wind Speed Wind Dir Waves Ship Positions

P. B. Shah

Owner: INGRAM BARGE COMPANY, Nashville, TN. More information available from US FCC via Universal Licensing System and Coast Guard Vessel Documentation Center.

Last reported at 2016-Jun-30 19:32 UTC. Time now 2016-Jul-01 20:48 UTC.
Position N 31°54' W 091°12'.

Length 46 m; draft 3.1 m.

Type: Towing. MMSI: 366961480.

Date/timePositionNaut miles runAvg speedWind from/ knotsBaromVisibWave heightAir tempDewpointWater temp
2016-Jun-30 19:32N 31°54' W 091°12'7 7.1
2016-Jun-30 18:29N 31°59' W 091°06'6 6.9
2016-Jun-30 17:33N 32°06' W 091°05'4 3.6
2016-Jun-30 16:34N 32°07' W 091°02'8 8.3
2016-Jun-30 15:34N 32°15' W 090°59'6 6.2
2016-Jun-30 14:34N 32°21' W 090°55'6 6.2
2016-Jun-30 13:33N 32°25' W 091°00'8 7.6
2016-Jun-30 12:33N 32°31' W 091°07'8 8.5
2016-Jun-30 11:33N 32°39' W 091°09'5 3.9
2016-Jun-30 10:10N 32°44' W 091°08'3 4.2
2016-Jun-30 09:33N 32°47' W 091°10'  

Dump ship's entire track history